Terminal Aerodrome Forecast
Issued by NWS Bismarck, ND

Home | Current Version | Previous Version | Text Only | Print | Product List | Glossary On
Versions: 1 2 3 4 5 6 7 8 9 10 11 12 13 14 15 16
000
FTUS43 KBIS 231700
TAFISN
TAF
KISN 231733Z 2318/2418 12013KT P6SM SCT060
     FM232200 14016G23KT P6SM SCT070
     FM240300 13013KT P6SM VCTS SCT060CB OVC100
      TEMPO 2403/2407 VRB25G35KT TSRA OVC050CB
     FM241200 16010KT P6SM SCT070=

USA.gov is the U.S. government's official web portal to all federal, state and local government web resources and services.